Town and Country, Missouri
Current Conditions -  °F | °C
As of 9:54 AM on Friday 28 Nov 2014 (Local Time) from KSUS Reporting Station
Few Clouds Few Clouds  
Wind Chill: 32°   Ceiling: Unl
Heat Index: 39°   Visibility: 10mi
Dew Point: 29°   Wind: 12mph
Humidity: 67%   Direction: 180°S
Pressure: 30.16"   Gusts: 18mph
Location:  38.6038°N, 90.5556°W
Report Text: KSUS 281554Z 18010G16KT 10SM FEW120 04/M02 A3016 RMK AO2 SLP219 T00391017
Loading
Personal Weather Stations






























Interactive Weather Map New forecast layout! Learn more

10-Day Weather Forecast

Advertisements
Track Severe Weather on mobile